createdAt,value
2023-05-11T00:01:13.337Z,71.00
2023-05-11T00:03:40.329Z,71.00
2023-05-11T00:06:07.603Z,71.10
2023-05-11T00:08:34.584Z,71.10
2023-05-11T00:11:01.618Z,71.10
2023-05-11T00:13:29.316Z,71.10
2023-05-11T00:15:56.306Z,71.10
2023-05-11T00:18:23.384Z,71.10
2023-05-11T00:20:50.329Z,71.20
2023-05-11T00:23:17.253Z,71.40
2023-05-11T00:25:44.135Z,71.40
2023-05-11T00:28:11.205Z,71.50
2023-05-11T00:30:40.606Z,71.50
2023-05-11T00:33:07.797Z,71.50
2023-05-11T00:35:34.724Z,71.40
2023-05-11T00:38:01.687Z,71.40
2023-05-11T00:40:28.945Z,71.50
2023-05-11T00:42:55.854Z,71.40
2023-05-11T00:45:23.247Z,71.40
2023-05-11T00:47:50.780Z,71.50
2023-05-11T00:50:19.075Z,71.50
2023-05-11T00:52:46.365Z,71.60
2023-05-11T00:55:14.775Z,71.70
2023-05-11T00:57:41.956Z,71.60
2023-05-11T01:00:09.640Z,71.60
2023-05-11T01:02:36.880Z,71.60
2023-05-11T01:05:04.106Z,71.60
2023-05-11T01:07:34.234Z,71.60
2023-05-11T01:10:52.718Z,71.60
2023-05-11T01:13:41.687Z,71.60
2023-05-11T01:16:19.274Z,71.50
2023-05-11T01:19:01.915Z,71.30
2023-05-11T01:21:33.909Z,71.40
2023-05-11T01:24:22.767Z,71.40
2023-05-11T01:27:31.867Z,71.50
2023-05-11T01:30:14.214Z,71.70
2023-05-11T01:32:43.793Z,71.80
2023-05-11T01:35:19.524Z,71.80
2023-05-11T01:37:50.447Z,71.90
2023-05-11T01:40:21.493Z,71.90
2023-05-11T01:42:50.477Z,71.90
2023-05-11T01:45:18.947Z,71.90
2023-05-11T01:47:50.016Z,72.10
2023-05-11T01:50:19.338Z,72.40
2023-05-11T01:52:47.897Z,72.30
2023-05-11T01:55:19.520Z,72.30
2023-05-11T01:57:47.992Z,72.10
2023-05-11T02:00:17.541Z,72.40
2023-05-11T02:02:47.579Z,72.40
2023-05-11T02:05:21.720Z,72.50
2023-05-11T02:07:51.265Z,72.70
2023-05-11T02:10:19.362Z,72.70
2023-05-11T02:12:52.269Z,72.80
2023-05-11T02:15:22.558Z,73.10
2023-05-11T02:17:51.322Z,73.20
2023-05-11T02:20:20.779Z,73.30
2023-05-11T02:22:49.013Z,73.50
2023-05-11T02:25:16.924Z,73.30
2023-05-11T02:27:44.621Z,73.30
2023-05-11T02:30:13.006Z,73.50
2023-05-11T02:32:49.617Z,73.60
2023-05-11T02:35:23.279Z,73.70
2023-05-11T02:37:56.670Z,74.00
2023-05-11T02:40:30.674Z,74.00
2023-05-11T02:43:04.285Z,74.00
2023-05-11T02:45:32.479Z,74.20
2023-05-11T02:48:01.558Z,74.20
2023-05-11T02:50:31.724Z,74.20
2023-05-11T02:53:03.224Z,74.20
2023-05-11T02:55:31.524Z,74.20
2023-05-11T02:57:58.813Z,74.30
2023-05-11T03:00:26.696Z,75.20
2023-05-11T03:02:53.943Z,74.30
2023-05-11T03:05:22.674Z,74.40
2023-05-11T03:07:49.738Z,74.30
2023-05-11T03:10:16.946Z,74.40
2023-05-11T03:12:45.776Z,74.50
2023-05-11T03:15:16.175Z,74.60
2023-05-11T03:17:46.818Z,74.70
2023-05-11T03:20:17.029Z,74.60
2023-05-11T03:22:46.390Z,74.60
2023-05-11T03:25:15.560Z,74.60
2023-05-11T03:27:44.023Z,74.60
2023-05-11T03:30:14.026Z,74.60
2023-05-11T03:32:45.216Z,74.60
2023-05-11T03:35:12.190Z,74.60
2023-05-11T03:37:39.904Z,75.30
2023-05-11T03:40:09.683Z,74.40
2023-05-11T03:42:48.052Z,74.30
2023-05-11T03:45:18.542Z,74.50
2023-05-11T03:47:48.080Z,74.60
2023-05-11T03:50:16.863Z,74.40
2023-05-11T03:52:44.336Z,74.60
2023-05-11T03:55:11.611Z,74.50
2023-05-11T03:57:39.415Z,74.60
2023-05-11T04:00:08.319Z,74.40
2023-05-11T04:02:42.586Z,74.60
2023-05-11T04:05:12.472Z,74.60
2023-05-11T04:07:41.216Z,74.70
2023-05-11T04:10:08.604Z,74.70
2023-05-11T04:12:36.112Z,74.70
2023-05-11T04:15:04.550Z,74.60
2023-05-11T04:17:31.573Z,74.70
2023-05-11T04:19:58.526Z,74.60
2023-05-11T04:22:25.487Z,74.80
2023-05-11T04:24:52.691Z,74.90
2023-05-11T04:27:19.607Z,74.80
2023-05-11T04:29:46.545Z,74.90
2023-05-11T04:32:13.489Z,75.00
2023-05-11T04:34:40.665Z,74.90
2023-05-11T04:37:09.469Z,74.80
2023-05-11T04:39:38.339Z,74.90
2023-05-11T04:42:05.453Z,74.80
2023-05-11T04:44:32.857Z,74.80
2023-05-11T04:46:59.993Z,74.90
2023-05-11T04:49:26.994Z,74.80
2023-05-11T04:51:54.236Z,74.80
2023-05-11T04:54:21.208Z,74.80
2023-05-11T04:56:49.417Z,74.70
2023-05-11T04:59:16.339Z,74.70
2023-05-11T05:01:43.281Z,74.60
2023-05-11T05:04:10.522Z,74.60
2023-05-11T05:06:38.571Z,74.40
2023-05-11T05:09:05.457Z,74.60
2023-05-11T05:11:32.671Z,74.50
2023-05-11T05:13:59.579Z,74.60
2023-05-11T05:16:26.618Z,74.70
2023-05-11T05:18:53.753Z,74.80
2023-05-11T05:21:20.829Z,74.60
2023-05-11T05:23:48.793Z,74.60
2023-05-11T05:26:15.823Z,74.50
2023-05-11T05:28:43.475Z,74.50
2023-05-11T05:31:10.474Z,74.40
2023-05-11T05:33:37.415Z,74.50
2023-05-11T05:36:04.700Z,74.40
2023-05-11T05:38:31.759Z,74.50
2023-05-11T05:40:59.200Z,74.50
2023-05-11T05:43:28.866Z,74.70
2023-05-11T05:45:55.789Z,74.70
2023-05-11T05:48:23.877Z,74.70
2023-05-11T05:50:50.809Z,74.70
2023-05-11T05:53:17.685Z,74.40
2023-05-11T05:55:44.548Z,74.20
2023-05-11T05:58:12.577Z,74.10
2023-05-11T06:00:40.526Z,74.10
2023-05-11T06:03:23.437Z,74.00
2023-05-11T06:05:51.521Z,74.30
2023-05-11T06:08:18.436Z,74.10
2023-05-11T06:10:45.468Z,74.10
2023-05-11T06:13:12.779Z,74.00
2023-05-11T06:15:43.699Z,74.00
2023-05-11T06:18:27.051Z,74.00
2023-05-11T06:20:55.520Z,73.90
2023-05-11T06:23:25.524Z,73.80
2023-05-11T06:25:52.651Z,73.80
2023-05-11T06:28:22.968Z,73.70
2023-05-11T06:30:50.215Z,73.60
2023-05-11T06:33:17.193Z,73.50
2023-05-11T06:35:45.358Z,73.60
2023-05-11T06:38:13.977Z,73.60
2023-05-11T06:40:41.533Z,73.30
2023-05-11T06:43:08.483Z,73.20
2023-05-11T06:45:46.997Z,73.80
2023-05-11T06:48:15.121Z,73.00
2023-05-11T06:50:42.068Z,72.80
2023-05-11T06:53:13.112Z,72.30
2023-05-11T06:55:40.123Z,72.10
2023-05-11T06:58:07.148Z,72.20
2023-05-11T07:00:34.432Z,72.20
2023-05-11T07:03:01.468Z,72.10
2023-05-11T07:05:28.484Z,71.70
2023-05-11T07:07:55.338Z,71.50
2023-05-11T07:10:22.259Z,71.20
2023-05-11T07:12:50.044Z,70.90
2023-05-11T07:15:17.014Z,70.40
2023-05-11T07:17:47.663Z,69.90
2023-05-11T07:20:14.924Z,69.20
2023-05-11T07:22:41.973Z,68.70
2023-05-11T07:25:09.905Z,68.20
2023-05-11T07:27:37.021Z,67.70
2023-05-11T07:30:04.799Z,67.30
2023-05-11T07:32:32.514Z,66.70
2023-05-11T07:34:59.508Z,66.00
2023-05-11T07:37:26.444Z,65.20
2023-05-11T07:39:54.434Z,65.00
2023-05-11T07:42:21.498Z,64.90
2023-05-11T07:44:48.379Z,64.70
2023-05-11T07:47:16.268Z,64.30
2023-05-11T07:49:44.204Z,63.70
2023-05-11T07:52:11.833Z,63.10
2023-05-11T07:54:40.266Z,61.90
2023-05-11T07:57:07.905Z,60.90
2023-05-11T07:59:34.870Z,60.50
2023-05-11T08:02:01.878Z,59.80
2023-05-11T08:04:30.249Z,59.50
2023-05-11T08:06:58.378Z,59.00
2023-05-11T08:09:25.337Z,58.90
2023-05-11T08:11:53.307Z,58.70
2023-05-11T08:14:21.326Z,58.40
2023-05-11T08:16:49.805Z,58.40
2023-05-11T08:19:16.969Z,58.20
2023-05-11T08:21:44.977Z,58.30
2023-05-11T08:24:12.034Z,58.40
2023-05-11T08:26:39.167Z,58.50
2023-05-11T08:29:07.859Z,58.90
2023-05-11T08:31:34.884Z,58.20
2023-05-11T08:34:02.588Z,58.40
2023-05-11T08:36:29.670Z,58.10
2023-05-11T08:38:58.983Z,57.90
2023-05-11T08:41:26.444Z,57.80
2023-05-11T08:43:57.677Z,57.90
2023-05-11T08:46:28.863Z,57.80
2023-05-11T08:48:56.770Z,57.60
2023-05-11T08:51:24.579Z,57.10
2023-05-11T08:53:53.209Z,57.20
2023-05-11T08:56:22.215Z,57.60
2023-05-11T08:58:50.868Z,57.80
2023-05-11T09:01:19.308Z,58.10
2023-05-11T09:03:47.500Z,58.50
2023-05-11T09:06:15.702Z,58.70
2023-05-11T09:08:44.641Z,58.80
2023-05-11T09:11:12.048Z,58.90
2023-05-11T09:13:39.128Z,58.70
2023-05-11T09:16:13.895Z,58.60
2023-05-11T09:18:52.031Z,58.50
2023-05-11T09:21:20.478Z,58.30
2023-05-11T09:23:56.296Z,58.10
2023-05-11T09:26:32.756Z,57.80
2023-05-11T09:29:03.142Z,57.70
2023-05-11T09:31:45.415Z,57.30
2023-05-11T09:34:25.236Z,57.40
2023-05-11T09:36:57.005Z,57.40
2023-05-11T09:40:17.707Z,57.20
2023-05-11T09:42:51.911Z,57.10
2023-05-11T09:45:48.150Z,57.20
2023-05-11T09:48:20.773Z,57.40
2023-05-11T09:50:55.139Z,57.40
2023-05-11T09:53:45.876Z,57.00
2023-05-11T09:56:19.147Z,56.90
2023-05-11T09:58:52.908Z,56.90
2023-05-11T10:01:48.505Z,56.40
2023-05-11T10:04:32.832Z,55.70
2023-05-11T10:07:06.918Z,55.30
2023-05-11T10:10:01.085Z,55.00
2023-05-11T10:12:38.670Z,55.10
2023-05-11T10:15:21.050Z,54.90
2023-05-11T10:18:06.030Z,54.70
2023-05-11T10:20:37.090Z,54.60
2023-05-11T10:23:15.214Z,54.30
2023-05-11T10:25:47.814Z,54.20
2023-05-11T10:28:24.114Z,53.90
2023-05-11T10:30:56.643Z,53.90
2023-05-11T10:33:28.107Z,53.40
2023-05-11T10:36:01.621Z,53.30
2023-05-11T10:38:35.093Z,52.80
2023-05-11T10:41:06.128Z,52.60
2023-05-11T10:44:00.662Z,52.50
2023-05-11T10:46:46.201Z,52.40
2023-05-11T10:49:46.208Z,52.50
2023-05-11T10:52:50.516Z,52.50
2023-05-11T10:55:31.916Z,52.70
2023-05-11T10:58:14.524Z,53.00
2023-05-11T11:01:19.576Z,52.80
2023-05-11T11:04:03.313Z,52.80
2023-05-11T11:06:32.411Z,53.00
2023-05-11T11:09:03.049Z,53.00
2023-05-11T11:11:40.533Z,53.00
2023-05-11T11:14:14.045Z,53.50
2023-05-11T11:17:25.623Z,53.90
2023-05-11T11:20:08.937Z,54.40
2023-05-11T11:22:39.191Z,54.40
2023-05-11T11:25:10.542Z,54.00
2023-05-11T11:27:57.847Z,53.40
2023-05-11T11:30:31.255Z,52.90
2023-05-11T11:33:13.980Z,52.60
2023-05-11T11:35:46.639Z,52.30
2023-05-11T11:38:28.574Z,52.10
2023-05-11T11:41:04.274Z,52.00
2023-05-11T11:43:50.881Z,51.80
2023-05-11T11:46:34.648Z,51.30
2023-05-11T11:49:17.746Z,50.90
2023-05-11T11:51:50.523Z,50.50
2023-05-11T11:54:51.660Z,50.40
2023-05-11T11:57:34.623Z,49.40
2023-05-11T12:00:13.161Z,48.90
2023-05-11T12:02:46.286Z,48.40
2023-05-11T12:05:23.720Z,47.60
2023-05-11T12:08:07.630Z,46.60
2023-05-11T12:11:12.984Z,46.00
2023-05-11T12:13:51.966Z,44.70
2023-05-11T12:16:22.493Z,45.00
2023-05-11T12:19:03.023Z,45.50
2023-05-11T12:21:32.471Z,46.40
2023-05-11T12:24:03.920Z,47.40
2023-05-11T12:26:37.450Z,47.80
2023-05-11T12:29:19.446Z,48.30
2023-05-11T12:31:54.357Z,49.30
2023-05-11T12:34:25.738Z,50.30
2023-05-11T12:37:12.141Z,50.80
2023-05-11T12:39:44.711Z,50.90
2023-05-11T12:42:19.546Z,50.50
2023-05-11T12:44:56.241Z,50.40
2023-05-11T12:47:27.080Z,50.20
2023-05-11T12:49:54.813Z,49.80
2023-05-11T12:52:27.910Z,49.70
2023-05-11T12:55:05.183Z,49.90
2023-05-11T12:57:38.798Z,50.40
2023-05-11T13:00:21.957Z,50.60
2023-05-11T13:02:56.569Z,51.00
2023-05-11T13:05:48.151Z,51.40
2023-05-11T13:08:18.684Z,52.30
2023-05-11T13:11:19.428Z,53.50
2023-05-11T13:13:55.444Z,54.80
2023-05-11T13:16:34.299Z,55.60
2023-05-11T13:19:09.547Z,56.40
2023-05-11T13:21:52.866Z,57.00
2023-05-11T13:24:28.519Z,57.70
2023-05-11T13:29:46.777Z,58.60
2023-05-11T13:32:24.777Z,59.10
2023-05-11T13:34:57.406Z,59.80
2023-05-11T13:37:31.781Z,60.20
2023-05-11T13:40:06.358Z,60.70
2023-05-11T13:42:44.884Z,60.90
2023-05-11T13:45:14.836Z,61.10
2023-05-11T13:47:49.931Z,61.30
2023-05-11T13:50:39.964Z,61.20
2023-05-11T13:53:16.841Z,61.80
2023-05-11T13:55:49.417Z,62.40
2023-05-11T13:58:31.623Z,62.30
2023-05-11T14:01:08.211Z,62.40
2023-05-11T14:03:42.540Z,62.80
2023-05-11T14:06:14.980Z,63.10
2023-05-11T14:08:51.232Z,63.70
2023-05-11T14:11:23.818Z,64.20
2023-05-11T14:13:52.009Z,64.60
2023-05-11T14:16:22.429Z,64.80
2023-05-11T14:18:56.022Z,64.70
2023-05-11T14:21:23.793Z,64.40
2023-05-11T14:24:11.454Z,64.20
2023-05-11T14:26:43.899Z,64.20
2023-05-11T14:29:19.751Z,63.90
2023-05-11T14:31:50.385Z,63.40
2023-05-11T14:34:22.272Z,62.50
2023-05-11T14:36:55.538Z,61.80
2023-05-11T14:39:22.651Z,61.10
2023-05-11T14:41:49.553Z,60.50
2023-05-11T14:44:16.622Z,60.10
2023-05-11T14:46:43.695Z,59.10
2023-05-11T14:49:10.817Z,58.40
2023-05-11T14:51:39.571Z,58.10
2023-05-11T14:54:06.714Z,58.10
2023-05-11T14:56:35.029Z,57.90
2023-05-11T14:59:02.382Z,57.40
2023-05-11T15:01:31.014Z,57.70
2023-05-11T15:03:58.295Z,57.50
2023-05-11T15:06:25.547Z,56.90
2023-05-11T15:08:52.594Z,56.40
2023-05-11T15:11:19.750Z,55.70
2023-05-11T15:13:47.614Z,54.90
2023-05-11T15:16:14.866Z,53.80
2023-05-11T15:18:43.096Z,51.80
2023-05-11T15:21:10.450Z,49.30
2023-05-11T15:23:37.441Z,47.60
2023-05-11T15:26:04.395Z,47.10
2023-05-11T15:28:31.509Z,47.00
2023-05-11T15:30:58.470Z,47.20
2023-05-11T15:33:25.419Z,47.50
2023-05-11T15:35:52.972Z,47.90
2023-05-11T15:38:20.142Z,48.40
2023-05-11T15:40:47.139Z,48.90
2023-05-11T15:43:14.061Z,49.40
2023-05-11T15:45:41.358Z,49.40
2023-05-11T15:48:08.375Z,49.50
2023-05-11T15:50:36.110Z,49.30
2023-05-11T15:53:03.230Z,49.20
2023-05-11T15:55:30.266Z,49.70
2023-05-11T15:57:57.162Z,49.80
2023-05-11T16:00:24.157Z,49.20
2023-05-11T16:02:51.455Z,49.00
2023-05-11T16:05:18.694Z,49.00
2023-05-11T16:07:45.674Z,49.30
2023-05-11T16:10:12.576Z,49.70
2023-05-11T16:12:39.475Z,49.90
2023-05-11T16:15:07.502Z,49.80
2023-05-11T16:17:34.490Z,49.90
2023-05-11T16:20:03.354Z,50.50
2023-05-11T16:22:31.264Z,50.70
2023-05-11T16:24:58.132Z,50.80
2023-05-11T16:27:25.063Z,51.00
2023-05-11T16:29:52.399Z,51.40
2023-05-11T16:32:20.358Z,51.80
2023-05-11T16:34:47.576Z,52.20
2023-05-11T16:37:14.502Z,52.20
2023-05-11T16:39:41.528Z,52.30
2023-05-11T16:42:08.418Z,52.50
2023-05-11T16:44:35.286Z,52.80
2023-05-11T16:47:02.686Z,52.50
2023-05-11T16:49:29.825Z,52.60
2023-05-11T16:51:57.010Z,53.10
2023-05-11T16:54:24.182Z,53.20
2023-05-11T16:56:51.058Z,53.60
2023-05-11T16:59:18.064Z,54.00
2023-05-11T17:01:46.210Z,54.40
2023-05-11T17:04:13.621Z,54.90
2023-05-11T17:06:41.148Z,55.10
2023-05-11T17:09:08.134Z,55.40
2023-05-11T17:11:35.075Z,55.90
2023-05-11T17:14:02.836Z,56.30
2023-05-11T17:16:30.123Z,56.70
2023-05-11T17:18:59.024Z,57.00
2023-05-11T17:21:26.342Z,57.40
2023-05-11T17:23:53.499Z,57.70
2023-05-11T17:26:32.444Z,57.70
2023-05-11T17:29:06.433Z,58.10
2023-05-11T17:31:33.564Z,58.20
2023-05-11T17:34:00.667Z,58.40
2023-05-11T17:36:30.111Z,58.50
2023-05-11T17:38:56.994Z,58.70
2023-05-11T17:41:24.031Z,58.90
2023-05-11T17:43:51.113Z,58.90
2023-05-11T17:46:18.177Z,58.80
2023-05-11T17:48:45.401Z,58.50
2023-05-11T17:51:13.164Z,58.40
2023-05-11T17:53:40.370Z,58.40
2023-05-11T17:56:10.038Z,58.30
2023-05-11T17:58:37.262Z,58.30
2023-05-11T18:01:09.128Z,58.40
2023-05-11T18:03:36.575Z,58.50
2023-05-11T18:06:04.804Z,58.60
2023-05-11T18:08:32.863Z,58.70
2023-05-11T18:11:00.142Z,58.70
2023-05-11T18:13:28.878Z,59.20
2023-05-11T18:15:59.774Z,58.70
2023-05-11T18:18:27.050Z,58.90
2023-05-11T18:20:54.257Z,58.90
2023-05-11T18:23:21.251Z,59.00
2023-05-11T18:25:48.498Z,59.20
2023-05-11T18:28:15.508Z,59.50
2023-05-11T18:30:42.598Z,59.40
2023-05-11T18:33:09.628Z,59.60
2023-05-11T18:35:39.048Z,59.90
2023-05-11T18:38:06.590Z,60.60
2023-05-11T18:40:33.968Z,60.80
2023-05-11T18:43:01.536Z,61.20
2023-05-11T18:45:30.447Z,61.40
2023-05-11T18:47:57.791Z,61.60
2023-05-11T18:50:25.574Z,61.70
2023-05-11T18:52:52.847Z,61.50
2023-05-11T18:55:19.866Z,61.60
2023-05-11T18:57:46.903Z,62.30
2023-05-11T19:00:14.590Z,63.00
2023-05-11T19:02:41.728Z,63.20
2023-05-11T19:05:09.182Z,63.40
2023-05-11T19:07:36.054Z,63.70
2023-05-11T19:10:03.173Z,63.90
2023-05-11T19:12:30.194Z,64.20
2023-05-11T19:14:57.258Z,64.60
2023-05-11T19:17:24.223Z,65.00
2023-05-11T19:19:52.186Z,65.00
2023-05-11T19:22:21.392Z,64.80
2023-05-11T19:24:48.384Z,65.00
2023-05-11T19:27:15.668Z,64.80
2023-05-11T19:29:42.883Z,64.90
2023-05-11T19:32:09.893Z,65.00
2023-05-11T19:34:36.860Z,65.20
2023-05-11T19:37:04.146Z,65.40
2023-05-11T19:39:31.159Z,65.60
2023-05-11T19:41:58.137Z,66.00
2023-05-11T19:44:25.066Z,66.30
2023-05-11T19:46:52.069Z,66.40
2023-05-11T19:49:18.951Z,66.40
2023-05-11T19:51:45.905Z,66.70
2023-05-11T19:54:13.047Z,66.70
2023-05-11T19:56:40.498Z,66.80
2023-05-11T19:59:07.613Z,66.80
2023-05-11T20:01:35.440Z,66.90
2023-05-11T20:04:02.481Z,67.00
2023-05-11T20:06:30.123Z,67.30
2023-05-11T20:08:57.145Z,67.40
2023-05-11T20:11:25.364Z,67.40
2023-05-11T20:13:53.626Z,67.40
2023-05-11T20:16:20.765Z,67.70
2023-05-11T20:18:48.138Z,67.80
2023-05-11T20:21:15.901Z,68.00
2023-05-11T20:23:44.351Z,67.90
2023-05-11T20:26:11.348Z,67.70
2023-05-11T20:28:39.694Z,67.70
2023-05-11T20:31:06.990Z,67.70
2023-05-11T20:36:03.878Z,67.80
2023-05-11T20:38:30.883Z,68.00
2023-05-11T20:40:58.192Z,68.10
2023-05-11T20:43:26.118Z,68.20
2023-05-11T20:45:53.955Z,68.40
2023-05-11T20:48:28.862Z,68.60
2023-05-11T20:51:05.786Z,69.00
2023-05-11T20:53:32.720Z,68.70
2023-05-11T20:56:01.836Z,68.80
2023-05-11T20:58:29.993Z,68.60
2023-05-11T21:00:57.154Z,68.70
2023-05-11T21:03:26.881Z,68.80
2023-05-11T21:05:54.305Z,68.70
2023-05-11T21:08:21.378Z,68.70
2023-05-11T21:10:48.374Z,68.90
2023-05-11T21:13:15.816Z,68.90
2023-05-11T21:15:42.999Z,68.90
2023-05-11T21:18:10.072Z,69.10
2023-05-11T21:20:37.347Z,69.20
2023-05-11T21:23:04.816Z,69.40
2023-05-11T21:25:31.915Z,69.40
2023-05-11T21:28:00.878Z,69.50
2023-05-11T21:30:28.311Z,69.40
2023-05-11T21:32:55.392Z,69.90
2023-05-11T21:35:22.397Z,70.20
2023-05-11T21:37:50.077Z,70.60
2023-05-11T21:40:17.916Z,70.70
2023-05-11T21:42:45.625Z,70.70
2023-05-11T21:45:12.670Z,70.80
2023-05-11T21:47:39.742Z,70.90
2023-05-11T21:50:08.713Z,71.00
2023-05-11T21:52:37.287Z,71.20
2023-05-11T21:55:05.039Z,71.20
2023-05-11T21:57:32.092Z,71.30
2023-05-11T21:59:59.357Z,71.40
2023-05-11T22:02:26.934Z,71.40
2023-05-11T22:04:53.917Z,71.70
2023-05-11T22:07:21.056Z,72.10
2023-05-11T22:09:48.123Z,72.50
2023-05-11T22:12:15.208Z,72.70
2023-05-11T22:14:42.277Z,72.80
2023-05-11T22:17:09.537Z,72.90
2023-05-11T22:19:36.474Z,73.00
2023-05-11T22:22:03.867Z,73.00
2023-05-11T22:24:30.794Z,73.10
2023-05-11T22:26:57.712Z,73.10
2023-05-11T22:29:24.996Z,73.40
2023-05-11T22:31:52.036Z,73.10
2023-05-11T22:34:21.546Z,73.20
2023-05-11T22:36:48.653Z,73.40
2023-05-11T22:39:15.570Z,73.50
2023-05-11T22:41:42.570Z,73.70
2023-05-11T22:44:09.623Z,73.80
2023-05-11T22:46:37.021Z,74.00
2023-05-11T22:49:03.971Z,74.20
2023-05-11T22:51:31.035Z,74.40
2023-05-11T22:53:57.915Z,74.40
2023-05-11T22:56:24.921Z,74.30
2023-05-11T22:58:52.724Z,74.10
2023-05-11T23:01:20.520Z,74.00
2023-05-11T23:03:47.528Z,74.00
2023-05-11T23:06:14.484Z,74.00
2023-05-11T23:08:41.445Z,73.90
2023-05-11T23:11:08.572Z,73.90
2023-05-11T23:13:35.670Z,74.00
2023-05-11T23:16:05.288Z,73.90
2023-05-11T23:18:32.969Z,74.10
2023-05-11T23:21:00.322Z,75.10
2023-05-11T23:23:27.334Z,74.20
2023-05-11T23:25:54.336Z,74.30
2023-05-11T23:28:21.344Z,75.10
2023-05-11T23:30:48.335Z,74.30
2023-05-11T23:33:15.278Z,74.40
2023-05-11T23:35:42.396Z,74.60
2023-05-11T23:38:09.363Z,74.70
2023-05-11T23:40:36.893Z,75.00
2023-05-11T23:43:03.896Z,75.10
2023-05-11T23:45:30.886Z,75.10
2023-05-11T23:47:57.888Z,75.30
2023-05-11T23:50:24.895Z,75.30
2023-05-11T23:52:52.902Z,75.30
2023-05-11T23:55:19.977Z,75.20
2023-05-11T23:57:46.857Z,75.00
